Time;durP1;ratioP1;P1;durP2;ratioP2;P2;SDS_P1;SDS_P2;PMS_P1;PMS_P2;Temp;Humidity;BMP_temperature;BMP_pressure;BME280_temperature;BME280_humidity;BME280_pressure;Samples;Min_cycle;Max_cycle;Signal;HPM_P1;HPM_P2
2022/07/21 00:00:14;;;;;;;10.10;7.93;;;;;;;;;;5038390;28;20212;-30
2022/07/21 00:02:41;;;;;;;10.05;8.93;;;;;;;;;;5051374;28;20215;-31
2022/07/21 00:05:09;;;;;;;10.93;9.40;;;;;;;;;;5044047;28;20213;-32
2022/07/21 00:07:36;;;;;;;11.30;8.50;;;;;;;;;;5045553;28;20703;-29
2022/07/21 00:10:03;;;;;;;10.93;9.50;;;;;;;;;;5052159;28;20610;-32
2022/07/21 00:12:30;;;;;;;11.82;9.70;;;;;;;;;;5048928;28;20206;-30
2022/07/21 00:14:59;;;;;;;9.82;8.85;;;;;;;;;;5048883;28;20304;-31
2022/07/21 00:17:26;;;;;;;10.77;8.90;;;;;;;;;;5049087;28;20226;-33
2022/07/21 00:19:53;;;;;;;11.82;9.02;;;;;;;;;;5036598;28;20209;-32
2022/07/21 00:22:20;;;;;;;10.20;9.20;;;;;;;;;;5041859;28;20225;-29
2022/07/21 00:24:47;;;;;;;12.82;10.48;;;;;;;;;;5051748;28;20522;-34
2022/07/21 00:27:14;;;;;;;12.57;11.27;;;;;;;;;;5049137;28;20286;-30
2022/07/21 00:29:42;;;;;;;9.80;8.73;;;;;;;;;;5043469;28;20205;-30
2022/07/21 00:32:10;;;;;;;11.55;9.52;;;;;;;;;;5049151;28;20216;-31
2022/07/21 00:34:37;;;;;;;13.40;10.52;;;;;;;;;;5045185;28;20209;-29
2022/07/21 00:37:05;;;;;;;16.10;10.20;;;;;;;;;;5043846;28;20262;-33
2022/07/21 00:39:32;;;;;;;10.73;9.63;;;;;;;;;;5049788;28;20267;-33
2022/07/21 00:41:59;;;;;;;10.60;9.60;;;;;;;;;;5050347;28;20220;-31
2022/07/21 00:44:27;;;;;;;10.20;9.10;;;;;;;;;;5047220;28;20213;-31
2022/07/21 00:46:55;;;;;;;10.52;8.93;;;;;;;;;;5042780;28;20228;-33
2022/07/21 00:49:24;;;;;;;11.43;9.30;;;;;;;;;;5045260;28;20213;-29
2022/07/21 00:51:51;;;;;;;9.95;8.57;;;;;;;;;;5040411;28;20201;-30
2022/07/21 00:54:19;;;;;;;9.90;8.98;;;;;;;;;;5042037;28;20222;-34
2022/07/21 00:56:46;;;;;;;11.57;10.05;;;;;;;;;;5050692;28;20238;-33
2022/07/21 00:59:14;;;;;;;10.73;9.48;;;;;;;;;;5037419;28;20207;-29
2022/07/21 01:01:41;;;;;;;12.05;10.27;;;;;;;;;;5042252;28;20228;-32
2022/07/21 01:04:08;;;;;;;11.32;9.85;;;;;;;;;;5048098;28;20215;-34
2022/07/21 01:06:37;;;;;;;13.25;10.95;;;;;;;;;;5042402;28;20240;-34
2022/07/21 01:09:04;;;;;;;11.38;9.50;;;;;;;;;;5046512;28;20690;-30
2022/07/21 01:11:32;;;;;;;9.65;8.70;;;;;;;;;;5050058;28;20214;-30
2022/07/21 01:13:59;;;;;;;13.18;9.63;;;;;;;;;;5044346;28;20207;-33
2022/07/21 01:16:27;;;;;;;15.88;11.35;;;;;;;;;;5049338;28;20228;-31
2022/07/21 01:18:54;;;;;;;10.52;9.32;;;;;;;;;;5049439;28;20217;-33
2022/07/21 01:21:29;;;;;;;11.40;9.27;;;;;;;;;;5035056;28;20215;-29
2022/07/21 01:23:56;;;;;;;14.20;8.88;;;;;;;;;;5046584;28;20204;-32
2022/07/21 01:26:23;;;;;;;9.93;9.02;;;;;;;;;;5050324;28;20229;-34
2022/07/21 01:28:51;;;;;;;13.48;10.82;;;;;;;;;;5039990;28;20216;-29
2022/07/21 01:31:18;;;;;;;11.20;10.02;;;;;;;;;;5048134;28;20215;-31
2022/07/21 01:33:45;;;;;;;11.98;9.88;;;;;;;;;;5049869;28;20214;-31
2022/07/21 01:36:12;;;;;;;17.45;10.13;;;;;;;;;;5045957;28;20228;-31
2022/07/21 01:41:32;;;;;;;10.55;9.35;;;;;;;;;;5040077;28;20732;-31
2022/07/21 01:44:01;;;;;;;12.23;10.48;;;;;;;;;;5048296;28;20722;-33
2022/07/21 01:46:29;;;;;;;12.95;11.20;;;;;;;;;;5030666;28;20226;-34
2022/07/21 01:48:56;;;;;;;11.40;10.20;;;;;;;;;;5046341;28;20673;-30
2022/07/21 01:51:23;;;;;;;14.00;11.32;;;;;;;;;;5038330;28;20200;-29
2022/07/21 01:53:52;;;;;;;12.70;10.23;;;;;;;;;;5049524;28;20473;-30
2022/07/21 01:56:20;;;;;;;14.18;10.95;;;;;;;;;;5049718;28;20232;-30
2022/07/21 01:58:47;;;;;;;12.75;11.32;;;;;;;;;;5046989;28;20208;-31
2022/07/21 02:01:15;;;;;;;15.52;10.77;;;;;;;;;;5052480;28;20240;-32
2022/07/21 02:03:43;;;;;;;12.63;11.32;;;;;;;;;;5052070;28;20216;-33
2022/07/21 02:06:10;;;;;;;12.40;10.90;;;;;;;;;;5038854;28;20209;-30
2022/07/21 02:08:37;;;;;;;16.27;10.70;;;;;;;;;;5047325;28;20200;-32
2022/07/21 02:11:06;;;;;;;17.75;10.63;;;;;;;;;;5053333;28;20210;-31
2022/07/21 02:13:33;;;;;;;11.30;9.88;;;;;;;;;;5047079;28;20550;-31
2022/07/21 02:16:00;;;;;;;10.50;9.40;;;;;;;;;;5039142;28;20218;-33
2022/07/21 02:18:27;;;;;;;12.70;10.57;;;;;;;;;;5052535;28;20726;-33
2022/07/21 02:20:55;;;;;;;12.55;10.90;;;;;;;;;;5040157;28;20206;-33
2022/07/21 02:23:23;;;;;;;14.55;10.52;;;;;;;;;;5052636;28;20227;-31
2022/07/21 02:25:51;;;;;;;10.60;8.85;;;;;;;;;;5052840;28;20394;-33
2022/07/21 02:28:20;;;;;;;10.25;9.25;;;;;;;;;;5052086;28;20230;-31
2022/07/21 02:30:48;;;;;;;10.57;8.77;;;;;;;;;;5044445;28;20296;-29
2022/07/21 02:33:15;;;;;;;11.23;8.50;;;;;;;;;;5052837;28;20203;-33
2022/07/21 02:35:42;;;;;;;10.45;8.65;;;;;;;;;;5042565;28;20296;-32
2022/07/21 02:38:09;;;;;;;12.32;9.23;;;;;;;;;;5045137;28;20226;-33
2022/07/21 02:40:36;;;;;;;11.40;8.35;;;;;;;;;;5052653;28;20205;-34
2022/07/21 02:43:05;;;;;;;11.52;8.52;;;;;;;;;;5051416;28;20227;-30
2022/07/21 02:45:33;;;;;;;9.10;7.97;;;;;;;;;;5049177;28;20261;-30
2022/07/21 02:48:02;;;;;;;9.93;8.82;;;;;;;;;;5045892;28;20249;-31
2022/07/21 02:50:33;;;;;;;9.25;8.32;;;;;;;;;;5043879;28;20211;-33
2022/07/21 02:53:01;;;;;;;9.73;8.73;;;;;;;;;;5050140;28;20207;-32
2022/07/21 02:55:29;;;;;;;11.55;8.30;;;;;;;;;;5052290;28;20203;-31
2022/07/21 02:58:09;;;;;;;9.32;8.02;;;;;;;;;;5048834;28;20228;-30
2022/07/21 03:00:38;;;;;;;8.82;7.90;;;;;;;;;;5051970;28;20208;-34
2022/07/21 03:03:06;;;;;;;8.88;7.72;;;;;;;;;;5052417;28;20233;-33
2022/07/21 03:05:33;;;;;;;8.65;6.95;;;;;;;;;;5042854;28;20662;-33
2022/07/21 03:08:00;;;;;;;25.40;8.98;;;;;;;;;;5048945;28;20713;-30
2022/07/21 03:10:27;;;;;;;12.57;8.02;;;;;;;;;;5052174;28;20207;-30
2022/07/21 03:12:55;;;;;;;9.02;7.93;;;;;;;;;;5046452;28;20211;-31
2022/07/21 03:15:22;;;;;;;9.63;7.28;;;;;;;;;;5049631;28;20204;-34
2022/07/21 03:17:50;;;;;;;9.48;7.68;;;;;;;;;;5051643;28;20230;-30
2022/07/21 03:20:17;;;;;;;10.48;7.32;;;;;;;;;;5047424;28;20209;-30
2022/07/21 03:22:44;;;;;;;9.20;8.35;;;;;;;;;;5051335;28;20583;-30
2022/07/21 03:25:11;;;;;;;8.63;7.50;;;;;;;;;;5051685;28;20211;-33
2022/07/21 03:27:38;;;;;;;10.07;8.30;;;;;;;;;;5051949;28;20253;-32
2022/07/21 03:30:07;;;;;;;11.82;7.70;;;;;;;;;;5045105;28;20571;-33
2022/07/21 03:32:34;;;;;;;9.27;8.35;;;;;;;;;;5045095;28;20202;-32
2022/07/21 03:35:03;;;;;;;9.23;6.88;;;;;;;;;;5045931;28;20363;-32
2022/07/21 03:37:30;;;;;;;8.25;7.35;;;;;;;;;;5045935;28;20223;-31
2022/07/21 03:39:57;;;;;;;8.98;8.15;;;;;;;;;;5051173;28;20206;-32
2022/07/21 03:42:25;;;;;;;9.35;7.80;;;;;;;;;;5050966;28;20208;-31
2022/07/21 03:44:52;;;;;;;10.52;7.82;;;;;;;;;;5036586;28;20581;-32
2022/07/21 03:49:50;;;;;;;9.18;7.30;;;;;;;;;;5054055;28;20218;-35
2022/07/21 03:52:18;;;;;;;9.85;7.90;;;;;;;;;;5068412;28;20208;-33
2022/07/21 03:54:45;;;;;;;9.73;7.53;;;;;;;;;;5071041;28;20655;-32
2022/07/21 03:57:12;;;;;;;13.32;8.77;;;;;;;;;;5061531;28;20230;-33
2022/07/21 03:59:39;;;;;;;11.27;8.45;;;;;;;;;;5046469;28;20203;-36
2022/07/21 04:02:06;;;;;;;9.00;8.10;;;;;;;;;;5058970;28;20204;-34
2022/07/21 04:04:34;;;;;;;9.85;7.25;;;;;;;;;;5054843;28;20219;-36
2022/07/21 04:07:01;;;;;;;8.32;7.43;;;;;;;;;;5043405;28;20235;-33
2022/07/21 04:09:31;;;;;;;11.80;7.85;;;;;;;;;;5052794;28;20201;-32
2022/07/21 04:11:58;;;;;;;7.50;6.80;;;;;;;;;;5049783;28;20207;-33
2022/07/21 04:14:25;;;;;;;9.60;7.20;;;;;;;;;;5045656;28;20206;-35
2022/07/21 04:16:52;;;;;;;11.00;7.15;;;;;;;;;;5061888;28;20222;-29
2022/07/21 04:19:19;;;;;;;10.15;7.00;;;;;;;;;;5051922;28;20216;-31
2022/07/21 04:21:46;;;;;;;8.55;7.38;;;;;;;;;;5046918;28;20199;-33
2022/07/21 04:24:13;;;;;;;8.82;7.43;;;;;;;;;;5048754;28;20216;-33
2022/07/21 04:26:42;;;;;;;10.48;7.32;;;;;;;;;;5057938;28;20237;-33
2022/07/21 04:29:09;;;;;;;8.05;7.25;;;;;;;;;;5072159;28;20198;-36
2022/07/21 04:31:36;;;;;;;8.77;7.90;;;;;;;;;;5052949;28;20206;-34
2022/07/21 04:34:04;;;;;;;7.20;6.50;;;;;;;;;;5055017;28;20205;-35
2022/07/21 04:36:31;;;;;;;8.52;7.65;;;;;;;;;;5046111;28;20706;-32
2022/07/21 04:39:01;;;;;;;9.10;6.80;;;;;;;;;;5067405;28;20212;-32
2022/07/21 04:41:28;;;;;;;8.90;6.65;;;;;;;;;;5072678;28;20193;-33
2022/07/21 04:43:56;;;;;;;8.88;6.43;;;;;;;;;;5053439;28;20229;-33
2022/07/21 04:46:24;;;;;;;9.45;7.07;;;;;;;;;;5057883;28;20551;-34
2022/07/21 04:48:51;;;;;;;6.82;5.93;;;;;;;;;;5057392;28;20212;-31
2022/07/21 04:51:18;;;;;;;7.20;6.50;;;;;;;;;;5049390;28;20203;-32
2022/07/21 04:53:45;;;;;;;8.20;7.40;;;;;;;;;;5059819;28;20210;-30
2022/07/21 04:56:12;;;;;;;13.15;7.75;;;;;;;;;;5053217;28;20206;-32
2022/07/21 04:58:39;;;;;;;7.00;6.10;;;;;;;;;;5044328;28;20205;-30
2022/07/21 05:01:08;;;;;;;6.78;6.07;;;;;;;;;;5052971;28;20210;-32
2022/07/21 05:03:35;;;;;;;6.70;6.10;;;;;;;;;;5057561;28;20219;-34
2022/07/21 05:06:02;;;;;;;8.45;6.65;;;;;;;;;;5047988;28;20215;-31
2022/07/21 05:08:29;;;;;;;8.90;6.13;;;;;;;;;;5052106;28;20205;-31
2022/07/21 05:10:56;;;;;;;7.13;6.00;;;;;;;;;;5072327;28;20202;-34
2022/07/21 05:13:24;;;;;;;6.43;5.82;;;;;;;;;;5050791;28;20202;-32
2022/07/21 05:15:51;;;;;;;7.82;6.18;;;;;;;;;;5057737;28;20202;-29
2022/07/21 05:18:20;;;;;;;8.70;6.78;;;;;;;;;;5052195;28;20218;-29
2022/07/21 05:20:47;;;;;;;8.50;6.50;;;;;;;;;;5045918;28;20206;-34
2022/07/21 05:23:14;;;;;;;7.07;6.32;;;;;;;;;;5059736;28;20227;-29
2022/07/21 05:25:41;;;;;;;7.35;6.28;;;;;;;;;;5052779;28;20209;-32
2022/07/21 05:28:08;;;;;;;7.78;6.25;;;;;;;;;;5049404;28;20219;-32
2022/07/21 05:30:36;;;;;;;6.53;5.93;;;;;;;;;;5054042;28;20195;-33
2022/07/21 05:33:03;;;;;;;10.27;6.90;;;;;;;;;;5060745;28;20202;-31
2022/07/21 05:35:32;;;;;;;6.78;5.78;;;;;;;;;;5053672;28;20211;-31
2022/07/21 05:37:59;;;;;;;8.02;6.15;;;;;;;;;;5056567;28;20226;-31
2022/07/21 05:40:26;;;;;;;7.13;6.40;;;;;;;;;;5065476;28;20207;-31
2022/07/21 05:42:53;;;;;;;7.45;6.45;;;;;;;;;;5057992;28;20636;-29
2022/07/21 05:45:20;;;;;;;8.68;6.55;;;;;;;;;;5048644;28;20207;-31
2022/07/21 05:47:47;;;;;;;7.32;6.30;;;;;;;;;;5064342;28;20238;-33
2022/07/21 05:50:14;;;;;;;9.25;6.75;;;;;;;;;;5051303;28;20215;-31
2022/07/21 05:52:43;;;;;;;10.38;7.00;;;;;;;;;;5058208;28;20201;-33
2022/07/21 05:55:11;;;;;;;8.80;6.57;;;;;;;;;;5063413;28;20203;-32
2022/07/21 05:57:38;;;;;;;11.35;7.15;;;;;;;;;;5062601;28;20224;-31
2022/07/21 06:00:06;;;;;;;6.50;5.90;;;;;;;;;;5048625;28;20219;-33
2022/07/21 06:02:33;;;;;;;7.45;6.82;;;;;;;;;;5046540;28;20295;-34
2022/07/21 06:05:00;;;;;;;7.28;6.05;;;;;;;;;;5047098;28;20232;-31
2022/07/21 06:07:28;;;;;;;6.88;5.93;;;;;;;;;;5040765;28;20319;-36
2022/07/21 06:09:56;;;;;;;7.35;6.18;;;;;;;;;;5060748;28;20211;-31
2022/07/21 06:12:23;;;;;;;9.35;7.18;;;;;;;;;;5057848;28;20294;-33
2022/07/21 06:14:50;;;;;;;7.47;5.88;;;;;;;;;;5041528;28;20204;-31
2022/07/21 06:17:17;;;;;;;7.53;6.43;;;;;;;;;;5056140;28;20228;-34
2022/07/21 06:19:44;;;;;;;7.47;6.20;;;;;;;;;;5049116;28;20215;-33
2022/07/21 06:22:11;;;;;;;7.40;6.28;;;;;;;;;;5044179;28;20223;-32
2022/07/21 06:24:39;;;;;;;6.93;6.22;;;;;;;;;;5063696;28;20228;-35
2022/07/21 06:27:07;;;;;;;8.55;6.78;;;;;;;;;;5051311;28;20599;-30
2022/07/21 06:29:34;;;;;;;10.38;7.00;;;;;;;;;;5048356;28;20203;-30
2022/07/21 06:32:01;;;;;;;6.55;5.93;;;;;;;;;;5041711;28;20219;-31
2022/07/21 06:34:29;;;;;;;7.35;6.40;;;;;;;;;;5057838;28;20209;-35
2022/07/21 06:36:56;;;;;;;6.93;6.15;;;;;;;;;;5049829;28;20245;-33
2022/07/21 06:39:23;;;;;;;6.88;6.22;;;;;;;;;;5058927;28;20205;-35
2022/07/21 06:41:50;;;;;;;6.95;6.25;;;;;;;;;;5051186;28;20212;-34
2022/07/21 06:44:19;;;;;;;8.68;6.05;;;;;;;;;;5042354;28;20217;-33
2022/07/21 06:46:46;;;;;;;7.53;5.80;;;;;;;;;;5051935;28;20232;-31
2022/07/21 06:49:13;;;;;;;8.07;6.93;;;;;;;;;;5061257;28;20264;-35
2022/07/21 06:51:40;;;;;;;8.02;6.45;;;;;;;;;;5051657;28;20209;-35
2022/07/21 06:54:07;;;;;;;7.07;6.20;;;;;;;;;;5070515;28;20296;-34
2022/07/21 06:56:34;;;;;;;6.85;6.10;;;;;;;;;;5054552;28;20312;-34
2022/07/21 06:59:01;;;;;;;6.88;6.25;;;;;;;;;;5051429;28;20232;-32
2022/07/21 07:01:30;;;;;;;7.20;6.00;;;;;;;;;;5056520;28;20510;-32
2022/07/21 07:04:00;;;;;;;8.77;6.25;;;;;;;;;;5060621;28;20232;-34
2022/07/21 07:06:27;;;;;;;9.68;6.10;;;;;;;;;;5052417;28;20249;-31
2022/07/21 07:08:54;;;;;;;6.10;5.60;;;;;;;;;;5060158;28;20198;-33
2022/07/21 07:11:21;;;;;;;7.28;6.57;;;;;;;;;;5074650;28;20448;-34
2022/07/21 07:13:49;;;;;;;8.85;6.53;;;;;;;;;;5064765;28;20202;-36
2022/07/21 07:16:16;;;;;;;7.70;6.78;;;;;;;;;;5058296;28;20293;-34
2022/07/21 07:18:44;;;;;;;7.68;6.35;;;;;;;;;;5061388;28;20280;-35
2022/07/21 07:21:11;;;;;;;7.70;6.13;;;;;;;;;;5046486;28;20201;-35
2022/07/21 07:23:39;;;;;;;6.68;6.07;;;;;;;;;;5048481;28;20297;-36
2022/07/21 07:26:06;;;;;;;6.38;5.80;;;;;;;;;;5054394;28;20206;-29
2022/07/21 07:28:33;;;;;;;6.60;5.97;;;;;;;;;;5048189;28;20210;-34
2022/07/21 07:31:00;;;;;;;7.78;5.90;;;;;;;;;;5052343;28;20206;-32
2022/07/21 07:33:27;;;;;;;7.95;6.65;;;;;;;;;;5065837;28;20295;-30
2022/07/21 07:35:57;;;;;;;6.93;6.00;;;;;;;;;;5055669;28;20229;-31
2022/07/21 07:38:24;;;;;;;6.35;5.70;;;;;;;;;;5067405;28;20231;-34
2022/07/21 07:40:51;;;;;;;6.18;5.60;;;;;;;;;;5059340;28;20260;-30
2022/07/21 07:43:18;;;;;;;6.70;6.10;;;;;;;;;;5045858;28;20209;-34
2022/07/21 07:45:46;;;;;;;7.00;6.35;;;;;;;;;;5065780;28;20221;-31
2022/07/21 07:48:13;;;;;;;7.18;6.20;;;;;;;;;;5065240;28;20426;-32
2022/07/21 07:50:40;;;;;;;6.78;6.03;;;;;;;;;;5051495;28;20209;-30
2022/07/21 07:53:09;;;;;;;7.50;6.30;;;;;;;;;;5054552;28;20205;-33
2022/07/21 07:55:36;;;;;;;7.03;5.60;;;;;;;;;;5066031;28;20659;-34
2022/07/21 07:58:03;;;;;;;6.22;5.63;;;;;;;;;;5047393;28;20226;-32
2022/07/21 08:00:30;;;;;;;7.18;5.85;;;;;;;;;;5064611;28;20208;-32
2022/07/21 08:02:57;;;;;;;6.57;5.97;;;;;;;;;;5055869;28;20205;-32
2022/07/21 08:05:24;;;;;;;6.30;5.68;;;;;;;;;;5043666;28;20299;-31
2022/07/21 08:07:52;;;;;;;13.45;6.57;;;;;;;;;;5052812;28;20226;-35
2022/07/21 08:10:20;;;;;;;6.75;6.10;;;;;;;;;;5053231;28;20671;-35
2022/07/21 08:12:47;;;;;;;7.07;6.20;;;;;;;;;;5039191;28;20221;-36
2022/07/21 08:15:15;;;;;;;7.15;6.50;;;;;;;;;;5056095;28;20197;-39
2022/07/21 08:17:42;;;;;;;7.57;6.03;;;;;;;;;;5062679;28;20225;-34
2022/07/21 08:20:16;;;;;;;6.65;6.00;;;;;;;;;;5046257;28;20207;-35
2022/07/21 08:22:44;;;;;;;8.05;6.10;;;;;;;;;;5038995;28;20296;-36
2022/07/21 08:25:11;;;;;;;7.90;6.50;;;;;;;;;;5061155;28;20214;-37
2022/07/21 08:27:41;;;;;;;6.38;5.78;;;;;;;;;;5044140;28;20222;-38
2022/07/21 08:30:09;;;;;;;6.63;5.45;;;;;;;;;;5047216;28;20237;-34
2022/07/21 08:32:37;;;;;;;6.50;5.82;;;;;;;;;;5052111;28;20198;-32
2022/07/21 08:35:08;;;;;;;6.28;5.68;;;;;;;;;;5045044;28;20198;-38
2022/07/21 08:37:35;;;;;;;8.75;5.50;;;;;;;;;;5047208;28;20229;-37
2022/07/21 08:40:02;;;;;;;5.13;4.68;;;;;;;;;;5053723;28;20209;-36
2022/07/21 08:42:30;;;;;;;7.00;5.70;;;;;;;;;;5035045;28;20300;-34
2022/07/21 08:45:01;;;;;;;7.82;5.85;;;;;;;;;;5055312;28;20301;-38
2022/07/21 08:47:28;;;;;;;6.28;5.57;;;;;;;;;;5057749;28;20249;-35
2022/07/21 08:49:55;;;;;;;6.28;5.47;;;;;;;;;;5046826;28;20229;-33
2022/07/21 08:52:22;;;;;;;6.07;5.28;;;;;;;;;;5046559;28;20706;-33
2022/07/21 08:54:49;;;;;;;6.03;5.43;;;;;;;;;;5045187;28;20193;-36
2022/07/21 08:57:17;;;;;;;5.65;5.15;;;;;;;;;;5040945;28;20221;-35
2022/07/21 08:59:44;;;;;;;6.10;5.50;;;;;;;;;;5038790;28;20201;-33
2022/07/21 09:02:27;;;;;;;6.43;5.40;;;;;;;;;;5044627;28;20225;-34
2022/07/21 09:04:55;;;;;;;6.22;5.60;;;;;;;;;;5046828;28;20214;-37
2022/07/21 09:07:23;;;;;;;5.55;5.03;;;;;;;;;;5049161;28;20225;-36
2022/07/21 09:09:56;;;;;;;5.82;5.00;;;;;;;;;;5055144;28;20200;-34
2022/07/21 09:12:26;;;;;;;6.18;5.55;;;;;;;;;;5047061;28;20202;-37
2022/07/21 09:14:53;;;;;;;5.85;5.25;;;;;;;;;;5043689;28;20198;-35
2022/07/21 09:17:21;;;;;;;5.95;5.30;;;;;;;;;;5048224;28;20224;-32
2022/07/21 09:19:49;;;;;;;5.45;4.95;;;;;;;;;;5049305;28;20205;-33
2022/07/21 09:22:19;;;;;;;6.93;5.18;;;;;;;;;;5050502;28;20201;-34
2022/07/21 09:24:50;;;;;;;4.78;4.28;;;;;;;;;;5067710;28;20217;-35
2022/07/21 09:27:18;;;;;;;5.13;4.63;;;;;;;;;;5053778;28;20317;-33
2022/07/21 09:29:46;;;;;;;7.85;4.63;;;;;;;;;;5047869;28;20198;-35
2022/07/21 09:32:18;;;;;;;6.18;4.88;;;;;;;;;;5051951;28;20560;-36
2022/07/21 09:34:45;;;;;;;6.90;5.10;;;;;;;;;;5047854;28;20197;-37
2022/07/21 09:37:12;;;;;;;6.53;4.97;;;;;;;;;;5051725;28;20234;-34
2022/07/21 09:39:45;;;;;;;6.07;5.00;;;;;;;;;;5051144;28;20194;-35
2022/07/21 09:42:19;;;;;;;6.70;4.50;;;;;;;;;;5048966;28;20301;-34
2022/07/21 09:44:47;;;;;;;5.22;4.80;;;;;;;;;;5042376;28;20225;-32
2022/07/21 09:47:15;;;;;;;5.28;4.78;;;;;;;;;;5067147;28;20312;-35
2022/07/21 09:49:42;;;;;;;6.90;5.13;;;;;;;;;;5037493;28;20216;-34
2022/07/21 09:52:19;;;;;;;5.90;4.78;;;;;;;;;;5040399;28;20201;-36
2022/07/21 09:54:48;;;;;;;5.68;4.60;;;;;;;;;;5056438;28;20189;-36
2022/07/21 09:57:16;;;;;;;6.40;4.93;;;;;;;;;;5048020;28;20225;-35
2022/07/21 09:59:44;;;;;;;5.18;4.15;;;;;;;;;;5036596;28;20289;-34
2022/07/21 10:02:15;;;;;;;5.60;4.75;;;;;;;;;;5062903;28;21207;-33
2022/07/21 10:04:43;;;;;;;5.25;4.75;;;;;;;;;;5052609;28;20230;-32
2022/07/21 10:07:11;;;;;;;7.45;5.03;;;;;;;;;;5137998;22;20225;-30
2022/07/21 10:09:39;;;;;;;4.43;4.05;;;;;;;;;;5054309;28;20221;-33
2022/07/21 10:12:08;;;;;;;6.00;4.72;;;;;;;;;;5047272;28;20671;-30
2022/07/21 10:14:36;;;;;;;5.55;4.53;;;;;;;;;;5043890;28;20214;-32
2022/07/21 10:17:03;;;;;;;4.97;4.57;;;;;;;;;;5051577;28;20229;-31
2022/07/21 10:19:33;;;;;;;4.82;4.32;;;;;;;;;;5064023;28;20208;-30
2022/07/21 10:22:03;;;;;;;5.10;4.70;;;;;;;;;;5052595;28;20833;-33
2022/07/21 10:24:30;;;;;;;4.13;3.80;;;;;;;;;;5060317;28;20212;-32
2022/07/21 10:27:05;;;;;;;4.93;4.43;;;;;;;;;;5052832;28;20237;-30
2022/07/21 10:29:47;;;;;;;4.60;4.20;;;;;;;;;;5052065;28;20651;-28
2022/07/21 10:32:17;;;;;;;7.05;4.40;;;;;;;;;;5064284;28;20287;-30
2022/07/21 10:34:44;;;;;;;4.53;3.75;;;;;;;;;;5048822;28;20202;-31
2022/07/21 10:37:11;;;;;;;4.75;4.28;;;;;;;;;;5052820;28;20225;-32
2022/07/21 10:39:39;;;;;;;5.00;4.60;;;;;;;;;;5068991;28;20212;-33
2022/07/21 10:42:15;;;;;;;6.05;4.50;;;;;;;;;;5055743;28;20206;-32
2022/07/21 10:44:44;;;;;;;7.45;4.28;;;;;;;;;;5049514;28;20232;-31
2022/07/21 10:47:11;;;;;;;4.20;3.90;;;;;;;;;;5060860;28;20260;-30
2022/07/21 10:49:47;;;;;;;4.70;4.10;;;;;;;;;;5049008;28;20209;-33
2022/07/21 10:52:33;;;;;;;4.38;3.90;;;;;;;;;;5044192;28;20241;-29
2022/07/21 10:55:23;;;;;;;4.93;3.97;;;;;;;;;;5057555;28;20648;-32
2022/07/21 10:58:10;;;;;;;5.28;4.53;;;;;;;;;;5049600;28;20233;-30
2022/07/21 11:00:37;;;;;;;4.68;4.20;;;;;;;;;;5056286;28;20205;-29
2022/07/21 11:03:15;;;;;;;4.35;3.95;;;;;;;;;;5064177;28;20206;-32
2022/07/21 11:06:10;;;;;;;4.55;4.15;;;;;;;;;;5048451;28;20210;-31
2022/07/21 11:08:39;;;;;;;5.45;4.40;;;;;;;;;;5056216;28;20217;-31
2022/07/21 11:11:09;;;;;;;5.40;4.50;;;;;;;;;;5054046;28;20216;-32
2022/07/21 11:13:51;;;;;;;6.47;4.10;;;;;;;;;;5051224;28;20194;-31
2022/07/21 11:16:18;;;;;;;4.30;3.72;;;;;;;;;;5048867;28;20611;-29
2022/07/21 11:18:45;;;;;;;4.00;3.70;;;;;;;;;;5059770;28;20200;-31
2022/07/21 11:21:14;;;;;;;5.65;4.40;;;;;;;;;;5045751;28;20213;-31
2022/07/21 11:23:45;;;;;;;4.13;3.72;;;;;;;;;;5055699;28;20256;-30
2022/07/21 11:26:12;;;;;;;4.25;3.85;;;;;;;;;;5050358;28;20279;-32
2022/07/21 11:28:39;;;;;;;4.25;3.67;;;;;;;;;;5047872;28;20206;-31
2022/07/21 11:31:08;;;;;;;4.85;4.25;;;;;;;;;;5062408;28;20563;-29
2022/07/21 11:33:36;;;;;;;4.63;4.03;;;;;;;;;;5064209;28;20557;-34
2022/07/21 11:36:04;;;;;;;4.32;4.00;;;;;;;;;;5047730;28;20268;-31
2022/07/21 11:38:32;;;;;;;4.15;3.85;;;;;;;;;;5066485;28;20205;-31
2022/07/21 11:41:14;;;;;;;6.85;3.90;;;;;;;;;;5064547;28;20208;-30
2022/07/21 11:43:43;;;;;;;4.07;3.65;;;;;;;;;;5057340;28;20204;-29
2022/07/21 11:46:18;;;;;;;3.53;3.25;;;;;;;;;;5056997;28;20731;-30
2022/07/21 11:48:45;;;;;;;4.57;3.72;;;;;;;;;;5074179;28;20204;-29
2022/07/21 11:51:13;;;;;;;4.38;3.97;;;;;;;;;;5057601;28;20201;-30
2022/07/21 11:53:44;;;;;;;4.40;3.63;;;;;;;;;;5063791;28;20197;-29
2022/07/21 11:56:15;;;;;;;6.00;4.38;;;;;;;;;;5074088;28;20196;-32
2022/07/21 11:58:43;;;;;;;3.95;3.60;;;;;;;;;;5054382;28;20213;-32
2022/07/21 12:01:11;;;;;;;4.32;3.92;;;;;;;;;;5064126;28;20205;-31
2022/07/21 12:03:47;;;;;;;4.22;3.83;;;;;;;;;;5073925;28;20205;-31
2022/07/21 12:06:15;;;;;;;4.82;3.88;;;;;;;;;;5055306;28;20212;-31
2022/07/21 12:08:43;;;;;;;4.57;4.18;;;;;;;;;;5063790;28;20266;-32
2022/07/21 12:11:12;;;;;;;5.68;4.50;;;;;;;;;;5074026;28;20201;-32
2022/07/21 12:13:56;;;;;;;4.82;3.88;;;;;;;;;;5061323;28;20206;-32
2022/07/21 12:16:23;;;;;;;4.35;3.92;;;;;;;;;;5065104;28;20217;-29
2022/07/21 12:18:50;;;;;;;4.05;3.58;;;;;;;;;;5073643;28;20216;-30
2022/07/21 12:21:17;;;;;;;4.72;4.32;;;;;;;;;;5049535;28;20201;-31
2022/07/21 12:23:44;;;;;;;4.80;4.35;;;;;;;;;;5069403;28;20201;-32
2022/07/21 12:26:23;;;;;;;5.20;4.13;;;;;;;;;;5046864;28;20229;-31
2022/07/21 12:28:52;;;;;;;4.25;3.92;;;;;;;;;;5050886;28;20198;-31
2022/07/21 12:31:23;;;;;;;5.00;4.05;;;;;;;;;;5057104;28;20543;-31
2022/07/21 12:33:50;;;;;;;4.13;3.78;;;;;;;;;;5038975;28;20209;-31
2022/07/21 12:36:18;;;;;;;4.78;4.03;;;;;;;;;;5046074;28;20204;-29
2022/07/21 12:38:46;;;;;;;7.75;4.30;;;;;;;;;;5057169;28;20214;-32
2022/07/21 12:41:13;;;;;;;4.43;4.00;;;;;;;;;;5072659;28;20216;-28
2022/07/21 12:43:41;;;;;;;4.57;3.97;;;;;;;;;;5058223;28;20206;-32
2022/07/21 12:46:11;;;;;;;4.80;3.80;;;;;;;;;;5065839;28;20239;-31
2022/07/21 12:48:40;;;;;;;4.07;3.72;;;;;;;;;;5070802;28;20258;-35
2022/07/21 12:51:10;;;;;;;4.65;3.90;;;;;;;;;;5053951;28;20217;-31
2022/07/21 12:53:38;;;;;;;4.90;3.65;;;;;;;;;;5063041;28;20193;-26
2022/07/21 12:56:07;;;;;;;5.75;3.97;;;;;;;;;;5062186;28;20202;-30
2022/07/21 12:58:34;;;;;;;7.10;3.97;;;;;;;;;;5050268;28;20212;-27
2022/07/21 13:01:01;;;;;;;4.57;3.92;;;;;;;;;;5047557;28;20209;-29
2022/07/21 13:03:29;;;;;;;4.40;4.00;;;;;;;;;;5049136;28;20198;-27
2022/07/21 13:05:58;;;;;;;4.35;3.85;;;;;;;;;;5051954;28;20218;-28
2022/07/21 13:08:25;;;;;;;4.43;4.00;;;;;;;;;;5055413;28;20686;-28
2022/07/21 13:10:52;;;;;;;4.10;3.80;;;;;;;;;;5048399;28;20208;-30
2022/07/21 13:13:20;;;;;;;4.72;4.10;;;;;;;;;;5051025;28;20217;-28
2022/07/21 13:15:47;;;;;;;5.10;4.00;;;;;;;;;;5048903;28;20209;-30
2022/07/21 13:18:14;;;;;;;5.35;3.58;;;;;;;;;;5071510;28;20217;-27
2022/07/21 13:20:42;;;;;;;3.80;3.40;;;;;;;;;;5046320;28;20202;-29
2022/07/21 13:23:10;;;;;;;7.63;4.05;;;;;;;;;;5054414;28;20214;-29
2022/07/21 13:25:37;;;;;;;3.80;3.50;;;;;;;;;;5057582;28;20235;-28
2022/07/21 13:28:05;;;;;;;5.07;3.80;;;;;;;;;;5051639;28;20850;-28
2022/07/21 13:30:32;;;;;;;3.95;3.53;;;;;;;;;;5048826;28;20225;-33
2022/07/21 13:32:59;;;;;;;6.95;3.80;;;;;;;;;;5063226;28;20201;-33
2022/07/21 13:35:26;;;;;;;6.57;3.70;;;;;;;;;;5047424;28;20201;-28
2022/07/21 13:37:53;;;;;;;4.00;3.67;;;;;;;;;;5043947;28;20222;-30
2022/07/21 13:40:22;;;;;;;4.35;3.95;;;;;;;;;;5055175;28;20213;-29
2022/07/21 13:42:50;;;;;;;4.35;3.85;;;;;;;;;;5052151;28;20204;-30
2022/07/21 13:45:17;;;;;;;4.80;3.78;;;;;;;;;;5044050;28;20205;-34
2022/07/21 13:47:44;;;;;;;5.00;3.70;;;;;;;;;;5049908;28;20237;-29
2022/07/21 13:50:12;;;;;;;4.40;4.00;;;;;;;;;;5048826;28;20847;-29
2022/07/21 13:52:40;;;;;;;3.83;3.53;;;;;;;;;;5052589;28;20508;-32
2022/07/21 13:55:08;;;;;;;6.30;3.90;;;;;;;;;;5055809;28;20209;-30
2022/07/21 13:57:36;;;;;;;5.90;3.92;;;;;;;;;;5055586;28;20214;-30
2022/07/21 14:00:06;;;;;;;4.32;3.92;;;;;;;;;;5049952;28;20197;-29
2022/07/21 14:02:33;;;;;;;3.92;3.53;;;;;;;;;;5062461;28;20193;-30
2022/07/21 14:05:00;;;;;;;4.20;3.83;;;;;;;;;;5061941;28;20202;-32
2022/07/21 14:07:27;;;;;;;4.15;3.67;;;;;;;;;;5058671;28;20228;-32
2022/07/21 14:09:54;;;;;;;7.38;4.75;;;;;;;;;;5075735;28;20212;-29
2022/07/21 14:12:21;;;;;;;5.25;4.20;;;;;;;;;;5060719;28;20536;-32
2022/07/21 14:14:50;;;;;;;5.30;4.13;;;;;;;;;;5044596;28;20207;-31
2022/07/21 14:17:17;;;;;;;5.25;3.95;;;;;;;;;;5059081;28;20221;-30
2022/07/21 14:19:46;;;;;;;4.72;3.92;;;;;;;;;;5063891;28;20213;-32
2022/07/21 14:22:16;;;;;;;5.57;3.92;;;;;;;;;;5062621;28;20209;-32
2022/07/21 14:27:27;;;;;;;4.28;3.80;;;;;;;;;;5075539;28;20240;-30
2022/07/21 14:29:56;;;;;;;4.72;3.90;;;;;;;;;;5039170;28;20206;-29
2022/07/21 14:32:23;;;;;;;5.82;4.22;;;;;;;;;;5057668;28;20193;-31
2022/07/21 14:34:50;;;;;;;4.60;4.18;;;;;;;;;;5059253;28;20458;-30
2022/07/21 14:37:18;;;;;;;4.82;3.78;;;;;;;;;;5056386;28;20213;-31
2022/07/21 14:39:45;;;;;;;4.38;3.70;;;;;;;;;;5073069;28;20201;-33
2022/07/21 14:42:12;;;;;;;5.05;4.55;;;;;;;;;;5075588;28;20213;-31
2022/07/21 14:44:40;;;;;;;5.40;4.20;;;;;;;;;;5056454;28;20201;-29
2022/07/21 14:47:08;;;;;;;5.28;4.18;;;;;;;;;;5053359;28;20292;-29
2022/07/21 14:49:36;;;;;;;6.15;4.28;;;;;;;;;;5068292;28;20212;-30
2022/07/21 14:52:03;;;;;;;4.63;4.22;;;;;;;;;;5059783;28;20213;-30